^^
Saratoga-Weather Station Historical Data
Daily Summary for April 9, 2021 Units:  Metric    English   Both
Daily Weekly Monthly Yearly Custom
  High: Low: Average:
Temperature: -0.6 °C -2.4 °C -1.5 °C
Dew Point: -1.4 °C -3.4 °C -2.3 °C
Humidity: 95% 93% 94%
Wind Speed: 6.4km/h 0km/h 1.8km/h
Wind Gust: 11.3km/h - -
Wind- - South
Pressure: 1004.7 hPa 999.3 hPa -
Precipitation: 0.0 mm    
Historical Graphs
 
 
Tabular Data for April 9, 2021
Time Temperature Dew Point Pressure Wind Wind Speed Wind Gust Humidity Rainfall Rate (Hourly) solar
00:03 -1 °C -1.8 °C 999.3 hPa WNW 1.4 km/h 4.8 km/h 94% 0.0 mm 0 W/m2
00:08 -1 °C -1.8 °C 999.3 hPa West 4.7 km/h 6.4 km/h 94% 0.0 mm 0 W/m2
00:13 -1.1 °C -1.9 °C 999.3 hPa WNW 3.2 km/h 6.4 km/h 94% 0.0 mm 0 W/m2
00:18 -1.1 °C -1.9 °C 999.3 hPa West 3.2 km/h 4.8 km/h 94% 0.0 mm 0 W/m2
00:23 -1.1 °C -1.9 °C 999.3 hPa West 1.4 km/h 1.6 km/h 94% 0.0 mm 0 W/m2
00:28 -1.1 °C -1.9 °C 999.3 hPa NW 1.4 km/h 3.2 km/h 94% 0.0 mm 0 W/m2
00:33 -1 °C -1.8 °C 999.3 hPa WNW 1.4 km/h 4.8 km/h 94% 0.0 mm 0 W/m2
00:38 -1 °C -1.8 °C 999.3 hPa WSW 1.4 km/h 6.4 km/h 94% 0.0 mm 0 W/m2
00:43 -1 °C -1.8 °C 999.3 hPa Calm   1.6 km/h 94% 0.0 mm 0 W/m2
00:48 -1 °C -1.8 °C 999.3 hPa WNW 4.7 km/h 6.4 km/h 94% 0.0 mm 0 W/m2
00:53 -1 °C -1.8 °C 999.3 hPa Calm   1.6 km/h 94% 0.0 mm 0 W/m2
00:58 -1 °C -1.8 °C 999.3 hPa WNW 3.2 km/h 4.8 km/h 94% 0.0 mm 0 W/m2
01:03 -1 °C -1.8 °C 999.3 hPa Calm   3.2 km/h 94% 0.0 mm 0 W/m2
01:08 -0.9 °C -1.7 °C 999.3 hPa Calm   4.8 km/h 94% 0.0 mm 0 W/m2
01:13 -0.9 °C -1.7 °C 999.3 hPa Calm     94% 0.0 mm 0 W/m2
01:18 -0.9 °C -1.7 °C 999.3 hPa WNW 3.2 km/h 3.2 km/h 94% 0.0 mm 0 W/m2
01:23 -1 °C -1.8 °C 999.3 hPa Calm   4.8 km/h 94% 0.0 mm 0 W/m2
01:28 -1 °C -1.8 °C 999.3 hPa Calm   1.6 km/h 94% 0.0 mm 0 W/m2
01:33 -1 °C -1.8 °C 999.7 hPa Calm   1.6 km/h 94% 0.0 mm 0 W/m2
01:38 -0.9 °C -1.7 °C 999.3 hPa Calm   3.2 km/h 94% 0.0 mm 0 W/m2
01:43 -1 °C -1.8 °C 999.3 hPa Calm     94% 0.0 mm 0 W/m2
01:48 -0.9 °C -1.7 °C 999.3 hPa Calm   1.6 km/h 94% 0.0 mm 0 W/m2
01:54 -1 °C -1.8 °C 999.3 hPa West 4.7 km/h 4.8 km/h 94% 0.0 mm 0 W/m2
01:59 -1 °C -1.8 °C 999.3 hPa West 1.4 km/h 3.2 km/h 94% 0.0 mm 0 W/m2
02:04 -1 °C -1.8 °C 999.7 hPa WNW 1.4 km/h 4.8 km/h 94% 0.0 mm 0 W/m2
02:09 -1 °C -1.8 °C 999.7 hPa Calm     94% 0.0 mm 0 W/m2
02:14 -0.9 °C -1.6 °C 999.7 hPa NW 4.7 km/h 6.4 km/h 95% 0.0 mm 0 W/m2
02:19 -0.9 °C -1.6 °C 999.7 hPa Calm   1.6 km/h 95% 0.0 mm 0 W/m2
02:24 -1 °C -1.7 °C 999.7 hPa West 1.4 km/h 3.2 km/h 95% 0.0 mm 0 W/m2
02:29 -1 °C -1.7 °C 999.7 hPa Calm   3.2 km/h 95% 0.0 mm 0 W/m2
02:34 -1 °C -1.7 °C 999.7 hPa Calm     95% 0.0 mm 0 W/m2
02:39 -1 °C -1.7 °C 999.7 hPa Calm   4.8 km/h 95% 0.0 mm 0 W/m2
02:44 -1 °C -1.7 °C 999.7 hPa West 3.2 km/h 3.2 km/h 95% 0.0 mm 0 W/m2
02:49 -1.1 °C -1.8 °C 999.7 hPa WNW 3.2 km/h 4.8 km/h 95% 0.0 mm 0 W/m2
02:54 -1.1 °C -1.8 °C 999.7 hPa WNW 1.4 km/h 3.2 km/h 95% 0.0 mm 0 W/m2
02:59 -1.1 °C -1.8 °C 999.7 hPa Calm   3.2 km/h 95% 0.0 mm 0 W/m2
03:04 -1.1 °C -1.8 °C 999.7 hPa West 4.7 km/h 9.7 km/h 95% 0.0 mm 0 W/m2
03:09 -1.1 °C -1.9 °C 999.7 hPa SW 1.4 km/h 3.2 km/h 94% 0.0 mm 0 W/m2
03:14 -1.1 °C -1.8 °C 999.7 hPa WNW 3.2 km/h 6.4 km/h 95% 0.0 mm 0 W/m2
03:19 -1.1 °C -1.8 °C 999.7 hPa WNW 3.2 km/h 3.2 km/h 95% 0.0 mm 0 W/m2
03:24 -1.1 °C -1.8 °C 999.7 hPa WNW 1.4 km/h 4.8 km/h 95% 0.0 mm 0 W/m2
03:29 -1.1 °C -1.8 °C 999.7 hPa WNW 1.4 km/h 1.6 km/h 95% 0.0 mm 0 W/m2
03:34 -1.1 °C -1.8 °C 999.7 hPa WSW 3.2 km/h 6.4 km/h 95% 0.0 mm 0 W/m2
03:39 -1.2 °C -1.9 °C 999.7 hPa WSW 1.4 km/h 6.4 km/h 95% 0.0 mm 0 W/m2
03:44 -1.2 °C -1.9 °C 999.7 hPa West 3.2 km/h 3.2 km/h 95% 0.0 mm 0 W/m2
03:49 -1.2 °C -1.9 °C 999.7 hPa West 4.7 km/h 6.4 km/h 95% 0.0 mm 0 W/m2
03:54 -1.2 °C -1.9 °C 999.7 hPa WSW 3.2 km/h 9.7 km/h 95% 0.0 mm 0 W/m2
03:59 -1.2 °C -1.9 °C 999.7 hPa WNW 1.4 km/h 6.4 km/h 95% 0.0 mm 0 W/m2
04:04 -1.2 °C -1.9 °C 999.7 hPa WNW 3.2 km/h 9.7 km/h 95% 0.0 mm 0 W/m2
04:09 -1.2 °C -1.9 °C 999.7 hPa NW 3.2 km/h 6.4 km/h 95% 0.0 mm 0 W/m2
04:14 -1.2 °C -1.9 °C 999.7 hPa NW 1.4 km/h 9.7 km/h 95% 0.0 mm 0 W/m2
04:19 -1.2 °C -1.9 °C 999.7 hPa NW 1.4 km/h 3.2 km/h 95% 0.0 mm 0 W/m2
04:24 -1.1 °C -1.8 °C 999.7 hPa West 6.4 km/h 6.4 km/h 95% 0.0 mm 0 W/m2
04:29 -1.1 °C -1.8 °C 999.7 hPa WNW 3.2 km/h 4.8 km/h 95% 0.0 mm 0 W/m2
04:34 -1.1 °C -1.8 °C 1000.0 hPa West 4.7 km/h 6.4 km/h 95% 0.0 mm 0 W/m2
04:39 -1.1 °C -1.8 °C 1000.0 hPa WNW 1.4 km/h 4.8 km/h 95% 0.0 mm 0 W/m2
04:44 -1.1 °C -1.8 °C 1000.0 hPa WSW 3.2 km/h 6.4 km/h 95% 0.0 mm 0 W/m2
04:49 -1.1 °C -1.8 °C 1000.0 hPa West 4.7 km/h 4.8 km/h 95% 0.0 mm 0 W/m2
04:54 -1.1 °C -1.8 °C 1000.0 hPa WSW 1.4 km/h 4.8 km/h 95% 0.0 mm 0 W/m2
04:59 -1 °C -1.7 °C 1000.0 hPa WSW 3.2 km/h 4.8 km/h 95% 0.0 mm 0 W/m2
05:04 -1 °C -1.7 °C 1000.0 hPa WSW 3.2 km/h 6.4 km/h 95% 0.0 mm 0 W/m2
05:09 -1 °C -1.7 °C 1000.3 hPa WNW 6.4 km/h 6.4 km/h 95% 0.0 mm 0 W/m2
05:14 -0.9 °C -1.6 °C 1000.3 hPa WNW 3.2 km/h 4.8 km/h 95% 0.0 mm 0 W/m2
05:19 -0.9 °C -1.6 °C 1000.3 hPa WNW 3.2 km/h 11.3 km/h 95% 0.0 mm 0 W/m2
05:24 -0.9 °C -1.6 °C 1000.3 hPa WNW 3.2 km/h 4.8 km/h 95% 0.0 mm 0 W/m2
05:29 -0.9 °C -1.6 °C 1000.3 hPa NW 3.2 km/h 6.4 km/h 95% 0.0 mm 0 W/m2
05:34 -0.9 °C -1.6 °C 1000.3 hPa WSW 3.2 km/h 4.8 km/h 95% 0.0 mm 0 W/m2
05:39 -0.8 °C -1.5 °C 1000.3 hPa WNW 3.2 km/h 9.7 km/h 95% 0.0 mm 0 W/m2
05:44 -0.8 °C -1.5 °C 1000.3 hPa WSW 4.7 km/h 4.8 km/h 95% 0.0 mm 0 W/m2
05:49 -0.8 °C -1.5 °C 1000.7 hPa WNW 1.4 km/h 6.4 km/h 95% 0.0 mm 0 W/m2
05:54 -0.8 °C -1.5 °C 1000.7 hPa WNW 3.2 km/h 4.8 km/h 95% 0.0 mm 0 W/m2
05:59 -0.8 °C -1.5 °C 1000.7 hPa West 3.2 km/h 4.8 km/h 95% 0.0 mm 0 W/m2
06:04 -0.8 °C -1.6 °C 1000.7 hPa WSW 3.2 km/h 6.4 km/h 94% 0.0 mm 0 W/m2
06:09 -0.8 °C -1.6 °C 1000.7 hPa WNW 3.2 km/h 3.2 km/h 94% 0.0 mm 0 W/m2
06:14 -0.7 °C -1.5 °C 1001.0 hPa West 1.4 km/h 6.4 km/h 94% 0.0 mm 0 W/m2
06:19 -0.7 °C -1.4 °C 1000.7 hPa West 1.4 km/h 3.2 km/h 95% 0.0 mm 0 W/m2
06:24 -0.7 °C -1.5 °C 1001.0 hPa West 3.2 km/h 6.4 km/h 94% 0.0 mm 0 W/m2
06:29 -0.6 °C -1.4 °C 1001.0 hPa ENE 4.7 km/h 4.8 km/h 94% 0.0 mm 0 W/m2
06:34 -0.7 °C -1.5 °C 1001.0 hPa East 3.2 km/h 3.2 km/h 94% 0.0 mm 0 W/m2
06:39 -0.7 °C -1.5 °C 1001.0 hPa NE 3.2 km/h 4.8 km/h 94% 0.0 mm 0 W/m2
06:44 -0.8 °C -1.6 °C 1001.0 hPa East 3.2 km/h 4.8 km/h 94% 0.0 mm 0 W/m2
06:49 -0.8 °C -1.6 °C 1001.4 hPa ENE 4.7 km/h 6.4 km/h 94% 0.0 mm 0 W/m2
06:54 -0.9 °C -1.7 °C 1001.4 hPa Calm   3.2 km/h 94% 0.0 mm 0 W/m2
06:59 -1.1 °C -1.8 °C 1001.4 hPa NE 3.2 km/h 6.4 km/h 95% 0.0 mm 0 W/m2
07:04 -1.1 °C -1.8 °C 1001.4 hPa NW 1.4 km/h 3.2 km/h 95% 0.0 mm 0 W/m2
07:09 -1.2 °C -2 °C 1001.7 hPa NW 3.2 km/h 6.4 km/h 94% 0.0 mm 0 W/m2
07:14 -1.2 °C -1.9 °C 1001.7 hPa NW 1.4 km/h 4.8 km/h 95% 0.0 mm 0 W/m2
07:19 -1.3 °C -2 °C 1001.7 hPa NNE 1.4 km/h 4.8 km/h 95% 0.0 mm 0 W/m2
07:24 -1.3 °C -2 °C 1002.0 hPa North 1.4 km/h 3.2 km/h 95% 0.0 mm 0 W/m2
07:29 -1.3 °C -2 °C 1002.0 hPa NW 1.4 km/h 4.8 km/h 95% 0.0 mm 0 W/m2
07:34 -1.4 °C -2.1 °C 1002.0 hPa NW 1.4 km/h 3.2 km/h 95% 0.0 mm 0 W/m2
07:39 -1.4 °C -2.1 °C 1002.0 hPa NE 1.4 km/h 3.2 km/h 95% 0.0 mm 0 W/m2
07:44 -1.5 °C -2.2 °C 1002.0 hPa Calm   1.6 km/h 95% 0.0 mm 0 W/m2
07:49 -1.5 °C -2.2 °C 1002.0 hPa Calm   3.2 km/h 95% 0.0 mm 0 W/m2
07:54 -1.5 °C -2.2 °C 1002.0 hPa Calm   3.2 km/h 95% 0.0 mm 0 W/m2
07:59 -1.5 °C -2.2 °C 1002.0 hPa Calm   1.6 km/h 95% 0.0 mm 0 W/m2
08:04 -1.4 °C -2.1 °C 1002.0 hPa NE 1.4 km/h 4.8 km/h 95% 0.0 mm 0 W/m2
08:09 -1.4 °C -2.1 °C 1002.0 hPa NNE 1.4 km/h 4.8 km/h 95% 0.0 mm 0 W/m2
08:14 -1.4 °C -2.1 °C 1002.0 hPa Calm   1.6 km/h 95% 0.0 mm 5 W/m2
08:19 -1.5 °C -2.2 °C 1002.0 hPa NE 1.4 km/h 3.2 km/h 95% 0.0 mm 7 W/m2
08:24 -1.5 °C -2.2 °C 1002.0 hPa NNE 1.4 km/h 4.8 km/h 95% 0.0 mm 7 W/m2
08:29 -1.6 °C -2.3 °C 1002.0 hPa Calm   1.6 km/h 95% 0.0 mm 5 W/m2
08:34 -1.6 °C -2.3 °C 1002.0 hPa Calm   1.6 km/h 95% 0.0 mm 7 W/m2
08:39 -1.6 °C -2.3 °C 1002.0 hPa Calm   3.2 km/h 95% 0.0 mm 7 W/m2
08:44 -1.6 °C -2.3 °C 1002.0 hPa North 1.4 km/h 3.2 km/h 95% 0.0 mm 7 W/m2
08:49 -1.6 °C -2.3 °C 1002.4 hPa NE 1.4 km/h 3.2 km/h 95% 0.0 mm 7 W/m2
08:54 -1.6 °C -2.3 °C 1002.4 hPa ESE 4.7 km/h 6.4 km/h 95% 0.0 mm 11 W/m2
08:59 -1.7 °C -2.4 °C 1002.4 hPa ESE 3.2 km/h 4.8 km/h 95% 0.0 mm 11 W/m2
09:04 -1.7 °C -2.5 °C 1002.4 hPa NE 1.4 km/h 4.8 km/h 94% 0.0 mm 9 W/m2
09:09 -1.7 °C -2.4 °C 1002.4 hPa Calm   3.2 km/h 95% 0.0 mm 11 W/m2
09:15 -1.7 °C -2.4 °C 1002.4 hPa Calm   1.6 km/h 95% 0.0 mm 12 W/m2
09:20 -1.8 °C -2.5 °C 1002.4 hPa Calm   3.2 km/h 95% 0.0 mm 12 W/m2
09:25 -1.8 °C -2.5 °C 1002.4 hPa East 1.4 km/h 4.8 km/h 95% 0.0 mm 14 W/m2
09:30 -1.8 °C -2.5 °C 1002.4 hPa East 3.2 km/h 4.8 km/h 95% 0.0 mm 14 W/m2
09:35 -1.8 °C -2.5 °C 1002.7 hPa East 3.2 km/h 4.8 km/h 95% 0.0 mm 14 W/m2
09:40 -1.8 °C -2.5 °C 1002.7 hPa ENE 3.2 km/h 3.2 km/h 95% 0.0 mm 14 W/m2
09:45 -1.9 °C -2.6 °C 1002.7 hPa ENE 1.4 km/h 3.2 km/h 95% 0.0 mm 14 W/m2
09:50 -1.9 °C -2.6 °C 1002.7 hPa Calm   1.6 km/h 95% 0.0 mm 14 W/m2
09:55 -1.9 °C -2.6 °C 1002.7 hPa Calm   3.2 km/h 95% 0.0 mm 14 W/m2
10:00 -1.9 °C -2.6 °C 1002.7 hPa Calm   4.8 km/h 95% 0.0 mm 14 W/m2
10:05 -1.9 °C -2.6 °C 1002.7 hPa NE 3.2 km/h 3.2 km/h 95% 0.0 mm 14 W/m2
10:10 -1.8 °C -2.5 °C 1002.7 hPa NE 1.4 km/h 3.2 km/h 95% 0.0 mm 18 W/m2
10:15 -1.8 °C -2.6 °C 1003.0 hPa Calm   1.6 km/h 94% 0.0 mm 18 W/m2
10:20 -1.8 °C -2.6 °C 1003.0 hPa Calm   4.8 km/h 94% 0.0 mm 19 W/m2
10:25 -1.8 °C -2.6 °C 1003.0 hPa ENE 4.7 km/h 6.4 km/h 94% 0.0 mm 23 W/m2
10:30 -1.8 °C -2.6 °C 1003.0 hPa NE 1.4 km/h 3.2 km/h 94% 0.0 mm 23 W/m2
10:35 -1.8 °C -2.6 °C 1003.0 hPa ENE 1.4 km/h 6.4 km/h 94% 0.0 mm 23 W/m2
10:40 -1.9 °C -2.7 °C 1003.4 hPa ESE 3.2 km/h 6.4 km/h 94% 0.0 mm 19 W/m2
10:45 -1.9 °C -2.7 °C 1003.4 hPa Calm   3.2 km/h 94% 0.0 mm 21 W/m2
10:50 -1.9 °C -2.7 °C 1003.4 hPa Calm   6.4 km/h 94% 0.0 mm 21 W/m2
10:55 -1.9 °C -2.7 °C 1003.4 hPa NNE 1.4 km/h 3.2 km/h 94% 0.0 mm 21 W/m2
11:00 -1.9 °C -2.7 °C 1003.4 hPa NNE 1.4 km/h 3.2 km/h 94% 0.0 mm 23 W/m2
11:05 -1.9 °C -2.7 °C 1003.4 hPa NE 3.2 km/h 4.8 km/h 94% 0.0 mm 23 W/m2
11:10 -1.9 °C -2.9 °C 1003.4 hPa NNE 1.4 km/h 3.2 km/h 93% 0.0 mm 25 W/m2
11:15 -1.9 °C -2.9 °C 1003.4 hPa Calm   1.6 km/h 93% 0.0 mm 23 W/m2
11:20 -1.9 °C -2.9 °C 1003.7 hPa NW 1.4 km/h 3.2 km/h 93% 0.0 mm 19 W/m2
11:25 -1.9 °C -2.9 °C 1003.7 hPa North 1.4 km/h 3.2 km/h 93% 0.0 mm 18 W/m2
11:30 -1.9 °C -2.9 °C 1003.7 hPa North 1.4 km/h 1.6 km/h 93% 0.0 mm 18 W/m2
11:35 -1.9 °C -2.7 °C 1003.7 hPa Calm   3.2 km/h 94% 0.0 mm 19 W/m2
11:40 -1.9 °C -2.7 °C 1003.7 hPa NE 1.4 km/h 3.2 km/h 94% 0.0 mm 23 W/m2
11:45 -1.8 °C -2.6 °C 1004.1 hPa NE 3.2 km/h 4.8 km/h 94% 0.0 mm 23 W/m2
11:50 -1.9 °C -2.9 °C 1004.1 hPa Calm   1.6 km/h 93% 0.0 mm 25 W/m2
11:55 -1.9 °C -2.9 °C 1004.1 hPa Calm   4.8 km/h 93% 0.0 mm 28 W/m2
12:00 -1.9 °C -2.7 °C 1004.1 hPa ENE 3.2 km/h 4.8 km/h 94% 0.0 mm 28 W/m2
12:05 -1.9 °C -2.7 °C 1004.1 hPa Calm   1.6 km/h 94% 0.0 mm 30 W/m2
12:10 -1.9 °C -2.7 °C 1004.1 hPa Calm   1.6 km/h 94% 0.0 mm 25 W/m2
12:15 -1.9 °C -2.7 °C 1004.1 hPa Calm     94% 0.0 mm 25 W/m2
12:20 -1.8 °C -2.6 °C 1004.1 hPa Calm   6.4 km/h 94% 0.0 mm 30 W/m2
12:25 -1.9 °C -2.7 °C 1004.1 hPa Calm   3.2 km/h 94% 0.0 mm 32 W/m2
12:30 -1.9 °C -2.7 °C 1004.1 hPa NNW 1.4 km/h 6.4 km/h 94% 0.0 mm 33 W/m2
12:35 -1.9 °C -2.9 °C 1004.1 hPa ENE 1.4 km/h 1.6 km/h 93% 0.0 mm 35 W/m2
12:40 -2 °C -3 °C 1004.1 hPa Calm   1.6 km/h 93% 0.0 mm 28 W/m2
12:45 -2 °C -3 °C 1004.1 hPa Calm   1.6 km/h 93% 0.0 mm 26 W/m2
12:50 -2 °C -3 °C 1004.1 hPa North 1.4 km/h 3.2 km/h 93% 0.0 mm 32 W/m2
12:55 -2 °C -3 °C 1004.1 hPa WNW 4.7 km/h 4.8 km/h 93% 0.0 mm 30 W/m2
13:00 -2.1 °C -3.1 °C 1004.1 hPa Calm   1.6 km/h 93% 0.0 mm 32 W/m2
13:05 -2.1 °C -3.1 °C 1004.1 hPa West 3.2 km/h 3.2 km/h 93% 0.0 mm 30 W/m2
13:10 -2.1 °C -3.1 °C 1004.1 hPa NNW 3.2 km/h 4.8 km/h 93% 0.0 mm 28 W/m2
13:15 -2.1 °C -3.1 °C 1004.4 hPa Calm   4.8 km/h 93% 0.0 mm 25 W/m2
13:20 -2.1 °C -3.1 °C 1004.4 hPa Calm   6.4 km/h 93% 0.0 mm 23 W/m2
13:25 -2.1 °C -3.1 °C 1004.4 hPa Calm   3.2 km/h 93% 0.0 mm 25 W/m2
13:30 -2.2 °C -3.2 °C 1004.4 hPa NNW 3.2 km/h 3.2 km/h 93% 0.0 mm 25 W/m2
13:36 -2.2 °C -3.2 °C 1004.4 hPa NW 1.4 km/h 3.2 km/h 93% 0.0 mm 26 W/m2
13:41 -2.2 °C -3.2 °C 1004.4 hPa NE 4.7 km/h 4.8 km/h 93% 0.0 mm 26 W/m2
13:46 -2.2 °C -3.2 °C 1004.4 hPa Calm   3.2 km/h 93% 0.0 mm 26 W/m2
13:51 -2.2 °C -3 °C 1004.4 hPa ENE 1.4 km/h 3.2 km/h 94% 0.0 mm 23 W/m2
13:56 -2.2 °C -3 °C 1004.4 hPa NW 1.4 km/h 1.6 km/h 94% 0.0 mm 26 W/m2
14:01 -2.2 °C -3 °C 1004.7 hPa ENE 1.4 km/h 3.2 km/h 94% 0.0 mm 28 W/m2
14:06 -2.2 °C -3 °C 1004.4 hPa North 3.2 km/h 3.2 km/h 94% 0.0 mm 26 W/m2
14:11 -2.3 °C -3.1 °C 1004.4 hPa Calm   1.6 km/h 94% 0.0 mm 26 W/m2
14:16 -2.2 °C -3 °C 1004.4 hPa ENE 3.2 km/h 6.4 km/h 94% 0.0 mm 25 W/m2
14:21 -2.3 °C -3.1 °C 1004.4 hPa NE 3.2 km/h 4.8 km/h 94% 0.0 mm 26 W/m2
14:26 -2.3 °C -3.1 °C 1004.4 hPa Calm   1.6 km/h 94% 0.0 mm 30 W/m2
14:31 -2.3 °C -3.1 °C 1004.4 hPa ENE 1.4 km/h 4.8 km/h 94% 0.0 mm 28 W/m2
14:36 -2.4 °C -3.4 °C 1004.4 hPa East 4.7 km/h 8 km/h 93% 0.0 mm 26 W/m2
14:41 -2.4 °C -3.4 °C 1004.4 hPa ENE 1.4 km/h 4.8 km/h 93% 0.0 mm 25 W/m2
14:46 -2.4 °C -3.2 °C 1004.7 hPa ENE 1.4 km/h 8 km/h 94% 0.0 mm 25 W/m2
14:51 -2.4 °C -3.2 °C 1004.7 hPa ENE 1.4 km/h 3.2 km/h 94% 0.0 mm 25 W/m2
14:56 -2.4 °C -3.4 °C 1004.4 hPa ESE 4.7 km/h 4.8 km/h 93% 0.0 mm 25 W/m2
15:01 -2.3 °C -3.1 °C 1004.7 hPa NE 1.4 km/h 3.2 km/h 94% 0.0 mm 21 W/m2
15:06 -2.4 °C -3.2 °C 1004.7 hPa ENE 3.2 km/h 4.8 km/h 94% 0.0 mm 25 W/m2
15:11 -2.4 °C -3.4 °C 1004.7 hPa ESE 1.4 km/h 3.2 km/h 93% 0.0 mm 25 W/m2
15:16 -2.4 °C -3.2 °C 1004.7 hPa SE 1.4 km/h 1.6 km/h 94% 0.0 mm 26 W/m2
15:21 -2.3 °C -3.3 °C 1004.7 hPa Calm   6.4 km/h 93% 0.0 mm 25 W/m2
15:26 -2.4 °C -3.4 °C 1004.4 hPa NE 1.4 km/h 1.6 km/h 93% 0.0 mm 23 W/m2
15:31 -2.3 °C -3.3 °C 1004.4 hPa East 1.4 km/h 6.4 km/h 93% 0.0 mm 21 W/m2
15:36 -2.3 °C -3.3 °C 1004.4 hPa ESE 1.4 km/h 3.2 km/h 93% 0.0 mm 23 W/m2
15:41 -2.3 °C -3.3 °C 1004.1 hPa Calm   4.8 km/h 93% 0.0 mm 26 W/m2
15:46 -2.3 °C -3.3 °C 1004.1 hPa Calm   1.6 km/h 93% 0.0 mm 28 W/m2
15:51 -2.3 °C -3.1 °C 1004.1 hPa East 6.4 km/h 6.4 km/h 94% 0.0 mm 26 W/m2
15:56 -2.3 °C -3.1 °C 1004.1 hPa NE 4.7 km/h 6.4 km/h 94% 0.0 mm 26 W/m2
16:01 -2.3 °C -3.1 °C 1004.1 hPa East 3.2 km/h 4.8 km/h 94% 0.0 mm 26 W/m2
16:06 -2.3 °C -3.3 °C 1004.1 hPa Calm   6.4 km/h 93% 0.0 mm 21 W/m2
16:11 -2.3 °C -3.3 °C 1004.1 hPa Calm   3.2 km/h 93% 0.0 mm 18 W/m2
Juneau County Weather
Compliments of Weather Underground - 4 mb